sensor_id;sensor_type;location;lat;lon;timestamp;temperature;humidity
108;DHT22;49;48.530;9.200;2023-06-26T00:00:29;24.80;1.00
108;DHT22;49;48.530;9.200;2023-06-26T00:03:01;24.80;1.00
108;DHT22;49;48.530;9.200;2023-06-26T00:05:28;24.90;1.00
108;DHT22;49;48.530;9.200;2023-06-26T00:08:00;24.70;1.00
108;DHT22;49;48.530;9.200;2023-06-26T00:10:27;24.50;1.00
108;DHT22;49;48.530;9.200;2023-06-26T00:12:59;24.30;1.00
108;DHT22;49;48.530;9.200;2023-06-26T00:15:27;24.30;1.00
108;DHT22;49;48.530;9.200;2023-06-26T00:17:59;24.30;1.00
108;DHT22;49;48.530;9.200;2023-06-26T00:20:29;24.30;1.00
108;DHT22;49;48.530;9.200;2023-06-26T00:23:00;24.10;1.00
108;DHT22;49;48.530;9.200;2023-06-26T00:25:29;24.30;1.00
108;DHT22;49;48.530;9.200;2023-06-26T00:27:56;24.10;1.00
108;DHT22;49;48.530;9.200;2023-06-26T00:30:23;24.00;1.00
108;DHT22;49;48.530;9.200;2023-06-26T00:32:53;24.10;1.00
108;DHT22;49;48.530;9.200;2023-06-26T00:35:23;24.10;1.00
108;DHT22;49;48.530;9.200;2023-06-26T00:37:50;24.10;1.00
108;DHT22;49;48.530;9.200;2023-06-26T00:40:19;24.10;1.00
108;DHT22;49;48.530;9.200;2023-06-26T00:42:48;24.20;1.00
108;DHT22;49;48.530;9.200;2023-06-26T00:45:18;24.10;1.00
108;DHT22;49;48.530;9.200;2023-06-26T00:47:47;24.00;1.00
108;DHT22;49;48.530;9.200;2023-06-26T00:50:15;24.00;1.00
108;DHT22;49;48.530;9.200;2023-06-26T00:52:43;23.90;1.00
108;DHT22;49;48.530;9.200;2023-06-26T00:55:11;23.80;1.00
108;DHT22;49;48.530;9.200;2023-06-26T00:57:39;23.70;1.00
108;DHT22;49;48.530;9.200;2023-06-26T01:00:07;23.70;1.00
108;DHT22;49;48.530;9.200;2023-06-26T01:02:35;23.70;1.00
108;DHT22;49;48.530;9.200;2023-06-26T01:07:38;23.60;1.00
108;DHT22;49;48.530;9.200;2023-06-26T01:15:19;23.30;1.00
108;DHT22;49;48.530;9.200;2023-06-26T01:17:50;23.30;1.00
108;DHT22;49;48.530;9.200;2023-06-26T01:20:18;23.10;1.00
108;DHT22;49;48.530;9.200;2023-06-26T01:22:55;22.80;1.00
108;DHT22;49;48.530;9.200;2023-06-26T01:25:45;22.80;1.00
108;DHT22;49;48.530;9.200;2023-06-26T01:28:20;22.60;1.00
108;DHT22;49;48.530;9.200;2023-06-26T01:30:57;22.60;1.00
108;DHT22;49;48.530;9.200;2023-06-26T01:33:28;22.70;1.00
108;DHT22;49;48.530;9.200;2023-06-26T01:35:59;22.90;1.00
108;DHT22;49;48.530;9.200;2023-06-26T01:41:49;22.80;1.00
108;DHT22;49;48.530;9.200;2023-06-26T01:44:26;22.70;1.00
108;DHT22;49;48.530;9.200;2023-06-26T01:47:02;22.40;1.00
108;DHT22;49;48.530;9.200;2023-06-26T01:49:46;22.20;1.00
108;DHT22;49;48.530;9.200;2023-06-26T01:52:20;22.40;1.00
108;DHT22;49;48.530;9.200;2023-06-26T01:54:59;22.40;1.00
108;DHT22;49;48.530;9.200;2023-06-26T01:57:31;22.50;1.00
108;DHT22;49;48.530;9.200;2023-06-26T02:00:04;22.50;1.00
108;DHT22;49;48.530;9.200;2023-06-26T02:02:32;22.50;1.00
108;DHT22;49;48.530;9.200;2023-06-26T02:04:59;22.30;1.00
108;DHT22;49;48.530;9.200;2023-06-26T02:07:26;22.20;1.00
108;DHT22;49;48.530;9.200;2023-06-26T02:09:54;21.80;1.00
108;DHT22;49;48.530;9.200;2023-06-26T02:12:21;21.70;1.00
108;DHT22;49;48.530;9.200;2023-06-26T02:14:48;21.50;1.00
108;DHT22;49;48.530;9.200;2023-06-26T02:17:20;21.60;1.00
108;DHT22;49;48.530;9.200;2023-06-26T02:19:47;21.60;1.00
108;DHT22;49;48.530;9.200;2023-06-26T02:22:15;21.60;1.00
108;DHT22;49;48.530;9.200;2023-06-26T02:24:43;21.70;1.00
108;DHT22;49;48.530;9.200;2023-06-26T02:27:11;22.00;1.00
108;DHT22;49;48.530;9.200;2023-06-26T02:29:39;22.10;1.00
108;DHT22;49;48.530;9.200;2023-06-26T02:32:07;22.20;1.00
108;DHT22;49;48.530;9.200;2023-06-26T02:34:41;22.30;1.00
108;DHT22;49;48.530;9.200;2023-06-26T02:37:09;22.20;1.00
108;DHT22;49;48.530;9.200;2023-06-26T02:42:05;22.30;1.00
108;DHT22;49;48.530;9.200;2023-06-26T02:44:33;22.50;1.00
108;DHT22;49;48.530;9.200;2023-06-26T02:47:00;22.10;1.00
108;DHT22;49;48.530;9.200;2023-06-26T02:49:31;22.10;1.00
108;DHT22;49;48.530;9.200;2023-06-26T02:52:04;22.10;1.00
108;DHT22;49;48.530;9.200;2023-06-26T02:54:34;21.90;1.00
108;DHT22;49;48.530;9.200;2023-06-26T02:57:01;21.80;1.00
108;DHT22;49;48.530;9.200;2023-06-26T02:59:29;21.60;1.00
108;DHT22;49;48.530;9.200;2023-06-26T03:01:59;21.40;1.00
108;DHT22;49;48.530;9.200;2023-06-26T03:04:26;21.20;1.00
108;DHT22;49;48.530;9.200;2023-06-26T03:06:53;21.00;1.00
108;DHT22;49;48.530;9.200;2023-06-26T03:09:22;21.10;1.00
108;DHT22;49;48.530;9.200;2023-06-26T03:11:49;20.80;1.00
108;DHT22;49;48.530;9.200;2023-06-26T03:14:18;20.90;1.00
108;DHT22;49;48.530;9.200;2023-06-26T03:16:45;20.80;1.00
108;DHT22;49;48.530;9.200;2023-06-26T03:19:13;20.90;1.00
108;DHT22;49;48.530;9.200;2023-06-26T03:21:40;20.80;1.00
108;DHT22;49;48.530;9.200;2023-06-26T03:24:07;20.60;1.00
108;DHT22;49;48.530;9.200;2023-06-26T03:29:05;20.70;1.00
108;DHT22;49;48.530;9.200;2023-06-26T03:31:32;20.60;1.00
108;DHT22;49;48.530;9.200;2023-06-26T03:33:59;20.70;1.00
108;DHT22;49;48.530;9.200;2023-06-26T03:36:26;20.90;1.00
108;DHT22;49;48.530;9.200;2023-06-26T03:38:53;20.80;1.00
108;DHT22;49;48.530;9.200;2023-06-26T03:46:25;21.30;1.00
108;DHT22;49;48.530;9.200;2023-06-26T03:48:57;21.50;1.00
108;DHT22;49;48.530;9.200;2023-06-26T03:51:27;21.50;1.00
108;DHT22;49;48.530;9.200;2023-06-26T03:53:54;21.70;1.00
108;DHT22;49;48.530;9.200;2023-06-26T03:56:23;21.70;1.00
108;DHT22;49;48.530;9.200;2023-06-26T03:58:50;21.70;1.00
108;DHT22;49;48.530;9.200;2023-06-26T04:01:17;21.70;1.00
108;DHT22;49;48.530;9.200;2023-06-26T04:03:48;21.70;1.00
108;DHT22;49;48.530;9.200;2023-06-26T04:08:46;21.80;1.00
108;DHT22;49;48.530;9.200;2023-06-26T04:11:13;22.10;1.00
108;DHT22;49;48.530;9.200;2023-06-26T04:13:40;22.30;1.00
108;DHT22;49;48.530;9.200;2023-06-26T04:16:08;22.30;1.00
108;DHT22;49;48.530;9.200;2023-06-26T04:18:37;22.60;1.00
108;DHT22;49;48.530;9.200;2023-06-26T04:21:09;22.60;1.00
108;DHT22;49;48.530;9.200;2023-06-26T04:23:42;22.40;1.00
108;DHT22;49;48.530;9.200;2023-06-26T04:26:10;22.30;1.00
108;DHT22;49;48.530;9.200;2023-06-26T04:31:14;22.20;1.00
108;DHT22;49;48.530;9.200;2023-06-26T04:36:15;22.00;1.00
108;DHT22;49;48.530;9.200;2023-06-26T04:41:14;22.10;1.00
108;DHT22;49;48.530;9.200;2023-06-26T04:46:15;22.10;1.00
108;DHT22;49;48.530;9.200;2023-06-26T04:48:42;22.00;1.00
108;DHT22;49;48.530;9.200;2023-06-26T04:53:40;22.40;1.00
108;DHT22;49;48.530;9.200;2023-06-26T04:56:07;22.80;1.00
108;DHT22;49;48.530;9.200;2023-06-26T04:58:36;22.80;1.00
108;DHT22;49;48.530;9.200;2023-06-26T05:01:03;22.80;1.00
108;DHT22;49;48.530;9.200;2023-06-26T05:03:32;22.90;1.00
108;DHT22;49;48.530;9.200;2023-06-26T05:06:02;22.90;1.00
108;DHT22;49;48.530;9.200;2023-06-26T05:08:29;22.90;1.00
108;DHT22;49;48.530;9.200;2023-06-26T05:13:31;22.90;1.00
108;DHT22;49;48.530;9.200;2023-06-26T05:15:59;23.10;1.00
108;DHT22;49;48.530;9.200;2023-06-26T05:18:26;23.30;1.00
108;DHT22;49;48.530;9.200;2023-06-26T05:21:01;23.40;1.00
108;DHT22;49;48.530;9.200;2023-06-26T05:23:31;23.70;1.00
108;DHT22;49;48.530;9.200;2023-06-26T05:26:04;23.80;1.00
108;DHT22;49;48.530;9.200;2023-06-26T05:28:33;24.10;1.00
108;DHT22;49;48.530;9.200;2023-06-26T05:31:07;24.50;1.00
108;DHT22;49;48.530;9.200;2023-06-26T05:33:35;24.40;1.00
108;DHT22;49;48.530;9.200;2023-06-26T05:36:04;24.80;1.00
108;DHT22;49;48.530;9.200;2023-06-26T05:38:35;25.10;1.00
108;DHT22;49;48.530;9.200;2023-06-26T05:41:04;25.40;1.00
108;DHT22;49;48.530;9.200;2023-06-26T05:43:38;26.10;1.00
108;DHT22;49;48.530;9.200;2023-06-26T05:46:05;27.50;1.00
108;DHT22;49;48.530;9.200;2023-06-26T05:48:34;28.70;1.00
108;DHT22;49;48.530;9.200;2023-06-26T05:51:04;30.10;1.00
108;DHT22;49;48.530;9.200;2023-06-26T05:53:32;31.20;1.00
108;DHT22;49;48.530;9.200;2023-06-26T05:56:00;32.30;1.00
108;DHT22;49;48.530;9.200;2023-06-26T05:58:30;32.50;1.00
108;DHT22;49;48.530;9.200;2023-06-26T06:00:59;33.10;1.00
108;DHT22;49;48.530;9.200;2023-06-26T06:03:26;33.10;1.00
108;DHT22;49;48.530;9.200;2023-06-26T06:05:58;33.20;1.00
108;DHT22;49;48.530;9.200;2023-06-26T06:08:49;33.60;1.00
108;DHT22;49;48.530;9.200;2023-06-26T06:11:16;34.30;1.00
108;DHT22;49;48.530;9.200;2023-06-26T06:13:44;34.60;1.00
108;DHT22;49;48.530;9.200;2023-06-26T06:16:12;34.50;1.00
108;DHT22;49;48.530;9.200;2023-06-26T06:18:39;35.20;1.00
108;DHT22;49;48.530;9.200;2023-06-26T06:21:10;35.10;1.00
108;DHT22;49;48.530;9.200;2023-06-26T06:23:38;35.40;1.00
108;DHT22;49;48.530;9.200;2023-06-26T06:26:09;35.20;1.00
108;DHT22;49;48.530;9.200;2023-06-26T06:28:36;35.60;1.00
108;DHT22;49;48.530;9.200;2023-06-26T06:31:03;36.30;1.00
108;DHT22;49;48.530;9.200;2023-06-26T06:33:32;37.10;1.00
108;DHT22;49;48.530;9.200;2023-06-26T06:36:00;37.50;1.00
108;DHT22;49;48.530;9.200;2023-06-26T06:38:28;38.00;1.00
108;DHT22;49;48.530;9.200;2023-06-26T06:40:55;39.10;1.00
108;DHT22;49;48.530;9.200;2023-06-26T06:43:22;39.10;1.00
108;DHT22;49;48.530;9.200;2023-06-26T06:45:49;39.00;1.00
108;DHT22;49;48.530;9.200;2023-06-26T06:48:16;39.00;1.00
108;DHT22;49;48.530;9.200;2023-06-26T06:50:45;39.00;1.00
108;DHT22;49;48.530;9.200;2023-06-26T06:53:11;38.90;1.00
108;DHT22;49;48.530;9.200;2023-06-26T06:55:39;39.50;1.00
108;DHT22;49;48.530;9.200;2023-06-26T06:58:06;39.80;1.00
108;DHT22;49;48.530;9.200;2023-06-26T07:03:03;39.90;1.00
108;DHT22;49;48.530;9.200;2023-06-26T07:05:30;40.30;1.00
108;DHT22;49;48.530;9.200;2023-06-26T07:07:59;40.40;1.00
108;DHT22;49;48.530;9.200;2023-06-26T07:10:27;41.20;1.00
108;DHT22;49;48.530;9.200;2023-06-26T07:12:54;41.40;1.00
108;DHT22;49;48.530;9.200;2023-06-26T07:15:21;41.60;1.00
108;DHT22;49;48.530;9.200;2023-06-26T07:17:49;41.40;1.00
108;DHT22;49;48.530;9.200;2023-06-26T07:20:16;41.30;1.00
108;DHT22;49;48.530;9.200;2023-06-26T07:22:44;41.40;1.00
108;DHT22;49;48.530;9.200;2023-06-26T07:25:13;42.40;1.00
108;DHT22;49;48.530;9.200;2023-06-26T07:27:42;43.00;1.00
108;DHT22;49;48.530;9.200;2023-06-26T07:30:13;43.50;1.00
108;DHT22;49;48.530;9.200;2023-06-26T07:32:40;43.60;1.00
108;DHT22;49;48.530;9.200;2023-06-26T07:35:08;42.80;1.00
108;DHT22;49;48.530;9.200;2023-06-26T07:37:35;42.20;1.00
108;DHT22;49;48.530;9.200;2023-06-26T07:40:03;41.80;1.00
108;DHT22;49;48.530;9.200;2023-06-26T07:42:32;41.80;1.00
108;DHT22;49;48.530;9.200;2023-06-26T07:45:00;41.70;1.00
108;DHT22;49;48.530;9.200;2023-06-26T07:47:27;42.50;1.00
108;DHT22;49;48.530;9.200;2023-06-26T07:49:56;42.00;1.00
108;DHT22;49;48.530;9.200;2023-06-26T07:52:27;41.70;1.00
108;DHT22;49;48.530;9.200;2023-06-26T07:54:55;41.20;1.00
108;DHT22;49;48.530;9.200;2023-06-26T07:57:26;40.90;1.00
108;DHT22;49;48.530;9.200;2023-06-26T07:59:55;41.40;1.00
108;DHT22;49;48.530;9.200;2023-06-26T08:02:25;41.60;1.00
108;DHT22;49;48.530;9.200;2023-06-26T08:04:55;42.30;1.00
108;DHT22;49;48.530;9.200;2023-06-26T08:07:23;41.80;1.00
108;DHT22;49;48.530;9.200;2023-06-26T08:09:50;41.90;1.00
108;DHT22;49;48.530;9.200;2023-06-26T08:12:20;41.00;1.00
108;DHT22;49;48.530;9.200;2023-06-26T08:14:47;40.20;1.00
108;DHT22;49;48.530;9.200;2023-06-26T08:17:16;40.60;1.00
108;DHT22;49;48.530;9.200;2023-06-26T08:22:16;40.60;1.00
108;DHT22;49;48.530;9.200;2023-06-26T08:24:43;40.20;1.00
108;DHT22;49;48.530;9.200;2023-06-26T08:27:13;40.20;1.00
108;DHT22;49;48.530;9.200;2023-06-26T08:29:41;40.20;1.00
108;DHT22;49;48.530;9.200;2023-06-26T08:32:08;40.50;1.00
108;DHT22;49;48.530;9.200;2023-06-26T08:34:40;40.80;1.00
108;DHT22;49;48.530;9.200;2023-06-26T08:37:10;40.80;1.00
108;DHT22;49;48.530;9.200;2023-06-26T08:39:40;40.60;1.00
108;DHT22;49;48.530;9.200;2023-06-26T08:44:36;40.80;1.00
108;DHT22;49;48.530;9.200;2023-06-26T08:47:05;40.70;1.00
108;DHT22;49;48.530;9.200;2023-06-26T08:49:41;40.80;1.00
108;DHT22;49;48.530;9.200;2023-06-26T08:52:17;40.70;1.00
108;DHT22;49;48.530;9.200;2023-06-26T08:54:52;41.60;1.00
108;DHT22;49;48.530;9.200;2023-06-26T08:59:51;41.20;1.00
108;DHT22;49;48.530;9.200;2023-06-26T09:04:51;39.90;1.00
108;DHT22;49;48.530;9.200;2023-06-26T09:07:19;40.00;1.00
108;DHT22;49;48.530;9.200;2023-06-26T09:09:48;40.70;1.00
108;DHT22;49;48.530;9.200;2023-06-26T09:12:20;40.70;1.00
108;DHT22;49;48.530;9.200;2023-06-26T09:14:55;40.60;1.00
108;DHT22;49;48.530;9.200;2023-06-26T09:17:25;40.80;1.00
108;DHT22;49;48.530;9.200;2023-06-26T09:19:55;40.20;1.00
108;DHT22;49;48.530;9.200;2023-06-26T09:22:23;39.80;1.00
108;DHT22;49;48.530;9.200;2023-06-26T09:24:50;39.60;1.00
108;DHT22;49;48.530;9.200;2023-06-26T09:27:20;39.60;1.00
108;DHT22;49;48.530;9.200;2023-06-26T09:29:48;39.50;1.00
108;DHT22;49;48.530;9.200;2023-06-26T09:32:19;39.10;1.00
108;DHT22;49;48.530;9.200;2023-06-26T09:34:47;38.70;1.00
108;DHT22;49;48.530;9.200;2023-06-26T09:37:16;38.60;1.00
108;DHT22;49;48.530;9.200;2023-06-26T09:42:14;38.30;1.00
108;DHT22;49;48.530;9.200;2023-06-26T09:49:44;39.10;1.00
108;DHT22;49;48.530;9.200;2023-06-26T09:52:16;38.50;1.00
108;DHT22;49;48.530;9.200;2023-06-26T09:54:48;37.90;1.00
108;DHT22;49;48.530;9.200;2023-06-26T09:57:27;37.20;1.00
108;DHT22;49;48.530;9.200;2023-06-26T09:59:55;37.40;1.00
108;DHT22;49;48.530;9.200;2023-06-26T10:02:22;37.60;1.00
108;DHT22;49;48.530;9.200;2023-06-26T10:04:51;37.50;1.00
108;DHT22;49;48.530;9.200;2023-06-26T10:07:22;38.00;1.00
108;DHT22;49;48.530;9.200;2023-06-26T10:09:56;37.90;1.00
108;DHT22;49;48.530;9.200;2023-06-26T10:12:28;38.10;1.00
108;DHT22;49;48.530;9.200;2023-06-26T10:17:37;38.00;1.00
108;DHT22;49;48.530;9.200;2023-06-26T10:20:09;38.00;1.00
108;DHT22;49;48.530;9.200;2023-06-26T10:22:44;38.30;1.00
108;DHT22;49;48.530;9.200;2023-06-26T10:25:10;38.20;1.00
108;DHT22;49;48.530;9.200;2023-06-26T10:27:43;38.10;1.00
108;DHT22;49;48.530;9.200;2023-06-26T10:32:47;38.20;1.00
108;DHT22;49;48.530;9.200;2023-06-26T10:37:49;38.40;1.00
108;DHT22;49;48.530;9.200;2023-06-26T10:40:22;38.10;1.00
108;DHT22;49;48.530;9.200;2023-06-26T10:45:28;36.60;1.00
108;DHT22;49;48.530;9.200;2023-06-26T10:50:50;36.40;1.00
108;DHT22;49;48.530;9.200;2023-06-26T10:53:24;36.80;1.00
108;DHT22;49;48.530;9.200;2023-06-26T10:55:58;37.00;1.00
108;DHT22;49;48.530;9.200;2023-06-26T10:58:30;36.60;1.00
108;DHT22;49;48.530;9.200;2023-06-26T11:01:17;36.50;1.00
108;DHT22;49;48.530;9.200;2023-06-26T11:03:48;36.80;1.00
108;DHT22;49;48.530;9.200;2023-06-26T11:06:25;37.20;1.00
108;DHT22;49;48.530;9.200;2023-06-26T11:09:00;37.00;1.00
108;DHT22;49;48.530;9.200;2023-06-26T11:11:55;36.60;1.00
108;DHT22;49;48.530;9.200;2023-06-26T11:14:26;36.50;1.00
108;DHT22;49;48.530;9.200;2023-06-26T11:16:56;36.20;1.00
108;DHT22;49;48.530;9.200;2023-06-26T11:19:26;35.90;1.00
108;DHT22;49;48.530;9.200;2023-06-26T11:24:30;35.60;1.00
108;DHT22;49;48.530;9.200;2023-06-26T11:27:02;35.70;1.00
108;DHT22;49;48.530;9.200;2023-06-26T11:29:32;35.90;1.00
108;DHT22;49;48.530;9.200;2023-06-26T11:32:04;35.90;1.00
108;DHT22;49;48.530;9.200;2023-06-26T11:34:32;35.70;1.00
108;DHT22;49;48.530;9.200;2023-06-26T11:37:01;36.00;1.00
108;DHT22;49;48.530;9.200;2023-06-26T11:39:30;36.20;1.00
108;DHT22;49;48.530;9.200;2023-06-26T11:41:59;36.10;1.00
108;DHT22;49;48.530;9.200;2023-06-26T11:44:30;35.90;1.00
108;DHT22;49;48.530;9.200;2023-06-26T11:46:57;35.90;1.00
108;DHT22;49;48.530;9.200;2023-06-26T11:49:24;35.80;1.00
108;DHT22;49;48.530;9.200;2023-06-26T11:51:53;35.50;1.00
108;DHT22;49;48.530;9.200;2023-06-26T11:54:27;35.50;1.00
108;DHT22;49;48.530;9.200;2023-06-26T11:56:57;35.00;1.00
108;DHT22;49;48.530;9.200;2023-06-26T11:59:41;35.00;1.00
108;DHT22;49;48.530;9.200;2023-06-26T12:02:10;35.40;1.00
108;DHT22;49;48.530;9.200;2023-06-26T12:04:43;35.60;1.00
108;DHT22;49;48.530;9.200;2023-06-26T12:07:12;35.90;1.00
108;DHT22;49;48.530;9.200;2023-06-26T12:09:41;36.00;1.00
108;DHT22;49;48.530;9.200;2023-06-26T12:12:13;35.70;1.00
108;DHT22;49;48.530;9.200;2023-06-26T12:14:41;35.70;1.00
108;DHT22;49;48.530;9.200;2023-06-26T12:17:10;35.70;1.00
108;DHT22;49;48.530;9.200;2023-06-26T12:19:38;35.70;1.00
108;DHT22;49;48.530;9.200;2023-06-26T12:24:43;35.70;1.00
108;DHT22;49;48.530;9.200;2023-06-26T12:27:13;35.40;1.00
108;DHT22;49;48.530;9.200;2023-06-26T12:29:50;35.60;1.00
108;DHT22;49;48.530;9.200;2023-06-26T12:32:23;35.80;1.00
108;DHT22;49;48.530;9.200;2023-06-26T12:34:51;35.60;1.00
108;DHT22;49;48.530;9.200;2023-06-26T12:37:19;35.40;1.00
108;DHT22;49;48.530;9.200;2023-06-26T12:39:53;35.40;1.00
108;DHT22;49;48.530;9.200;2023-06-26T12:42:24;35.00;1.00
108;DHT22;49;48.530;9.200;2023-06-26T12:44:54;35.00;1.00
108;DHT22;49;48.530;9.200;2023-06-26T12:47:24;34.80;1.00
108;DHT22;49;48.530;9.200;2023-06-26T12:49:54;34.90;1.00
108;DHT22;49;48.530;9.200;2023-06-26T12:52:21;35.00;1.00
108;DHT22;49;48.530;9.200;2023-06-26T12:54:52;35.10;1.00
108;DHT22;49;48.530;9.200;2023-06-26T12:57:22;35.10;1.00
108;DHT22;49;48.530;9.200;2023-06-26T13:02:19;34.80;1.00
108;DHT22;49;48.530;9.200;2023-06-26T13:04:46;34.60;1.00
108;DHT22;49;48.530;9.200;2023-06-26T13:12:15;35.00;1.00
108;DHT22;49;48.530;9.200;2023-06-26T13:17:11;35.60;1.00
108;DHT22;49;48.530;9.200;2023-06-26T13:19:38;35.60;1.00
108;DHT22;49;48.530;9.200;2023-06-26T13:22:05;35.30;1.00
108;DHT22;49;48.530;9.200;2023-06-26T13:29:37;34.50;1.00
108;DHT22;49;48.530;9.200;2023-06-26T13:34:33;34.40;1.00
108;DHT22;49;48.530;9.200;2023-06-26T13:37:01;34.20;1.00
108;DHT22;49;48.530;9.200;2023-06-26T13:39:28;34.20;1.00
108;DHT22;49;48.530;9.200;2023-06-26T13:41:55;34.40;1.00
108;DHT22;49;48.530;9.200;2023-06-26T13:44:22;34.50;1.00
108;DHT22;49;48.530;9.200;2023-06-26T13:49:18;34.60;1.00
108;DHT22;49;48.530;9.200;2023-06-26T13:51:46;34.30;1.00
108;DHT22;49;48.530;9.200;2023-06-26T13:56:52;34.30;1.00
108;DHT22;49;48.530;9.200;2023-06-26T13:59:23;33.90;1.00
108;DHT22;49;48.530;9.200;2023-06-26T14:31:58;33.30;1.00
108;DHT22;49;48.530;9.200;2023-06-26T14:49:44;33.60;1.00
108;DHT22;49;48.530;9.200;2023-06-26T15:04:44;32.70;1.00
108;DHT22;49;48.530;9.200;2023-06-26T15:17:13;32.50;1.00
108;DHT22;49;48.530;9.200;2023-06-26T15:19:40;32.40;1.00
108;DHT22;49;48.530;9.200;2023-06-26T15:27:12;32.70;1.00
108;DHT22;49;48.530;9.200;2023-06-26T15:34:42;32.60;1.00
108;DHT22;49;48.530;9.200;2023-06-26T15:37:09;32.90;1.00
108;DHT22;49;48.530;9.200;2023-06-26T15:39:36;33.00;1.00
108;DHT22;49;48.530;9.200;2023-06-26T15:42:05;33.50;1.00
108;DHT22;49;48.530;9.200;2023-06-26T15:44:34;33.40;1.00
108;DHT22;49;48.530;9.200;2023-06-26T15:47:00;33.20;1.00
108;DHT22;49;48.530;9.200;2023-06-26T15:49:27;33.10;1.00
108;DHT22;49;48.530;9.200;2023-06-26T15:51:54;32.80;1.00
108;DHT22;49;48.530;9.200;2023-06-26T15:54:21;32.80;1.00
108;DHT22;49;48.530;9.200;2023-06-26T15:59:17;32.60;1.00
108;DHT22;49;48.530;9.200;2023-06-26T16:01:46;32.60;1.00
108;DHT22;49;48.530;9.200;2023-06-26T16:04:14;32.50;1.00
108;DHT22;49;48.530;9.200;2023-06-26T16:06:41;32.10;1.00
108;DHT22;49;48.530;9.200;2023-06-26T16:11:37;31.90;1.00
108;DHT22;49;48.530;9.200;2023-06-26T16:14:04;32.00;1.00
108;DHT22;49;48.530;9.200;2023-06-26T16:16:31;32.00;1.00
108;DHT22;49;48.530;9.200;2023-06-26T16:18:59;32.20;1.00
108;DHT22;49;48.530;9.200;2023-06-26T16:21:26;32.00;1.00
108;DHT22;49;48.530;9.200;2023-06-26T16:23:53;31.90;1.00
108;DHT22;49;48.530;9.200;2023-06-26T16:26:23;32.00;1.00
108;DHT22;49;48.530;9.200;2023-06-26T16:28:49;31.80;1.00
108;DHT22;49;48.530;9.200;2023-06-26T16:31:17;31.50;1.00
108;DHT22;49;48.530;9.200;2023-06-26T16:33:44;31.40;1.00
108;DHT22;49;48.530;9.200;2023-06-26T16:36:12;31.10;1.00
108;DHT22;49;48.530;9.200;2023-06-26T16:38:39;31.00;1.00
108;DHT22;49;48.530;9.200;2023-06-26T16:41:10;30.90;1.00
108;DHT22;49;48.530;9.200;2023-06-26T16:43:37;30.70;1.00
108;DHT22;49;48.530;9.200;2023-06-26T16:46:04;30.80;1.00
108;DHT22;49;48.530;9.200;2023-06-26T16:48:31;30.90;1.00
108;DHT22;49;48.530;9.200;2023-06-26T16:50:58;30.70;1.00
108;DHT22;49;48.530;9.200;2023-06-26T16:53:27;30.60;1.00
108;DHT22;49;48.530;9.200;2023-06-26T16:58:43;30.20;1.00
108;DHT22;49;48.530;9.200;2023-06-26T17:01:11;30.10;1.00
108;DHT22;49;48.530;9.200;2023-06-26T17:03:39;30.20;1.00
108;DHT22;49;48.530;9.200;2023-06-26T17:08:42;29.70;1.00
108;DHT22;49;48.530;9.200;2023-06-26T17:18:36;29.60;1.00
108;DHT22;49;48.530;9.200;2023-06-26T17:21:04;29.60;1.00
108;DHT22;49;48.530;9.200;2023-06-26T17:23:31;29.30;1.00
108;DHT22;49;48.530;9.200;2023-06-26T17:25:59;29.20;1.00
108;DHT22;49;48.530;9.200;2023-06-26T17:28:26;29.20;1.00
108;DHT22;49;48.530;9.200;2023-06-26T17:30:53;29.10;1.00
108;DHT22;49;48.530;9.200;2023-06-26T17:33:20;29.20;1.00
108;DHT22;49;48.530;9.200;2023-06-26T17:35:47;29.40;1.00
108;DHT22;49;48.530;9.200;2023-06-26T17:38:14;29.50;1.00
108;DHT22;49;48.530;9.200;2023-06-26T17:40:42;29.70;1.00
108;DHT22;49;48.530;9.200;2023-06-26T17:43:10;29.80;1.00
108;DHT22;49;48.530;9.200;2023-06-26T17:48:06;29.70;1.00
108;DHT22;49;48.530;9.200;2023-06-26T17:50:34;29.70;1.00
108;DHT22;49;48.530;9.200;2023-06-26T17:53:02;29.90;1.00
108;DHT22;49;48.530;9.200;2023-06-26T17:55:31;30.00;1.00
108;DHT22;49;48.530;9.200;2023-06-26T18:00:31;30.10;1.00
108;DHT22;49;48.530;9.200;2023-06-26T18:02:58;30.20;1.00
108;DHT22;49;48.530;9.200;2023-06-26T18:08:06;29.70;1.00
108;DHT22;49;48.530;9.200;2023-06-26T18:10:35;29.60;1.00
108;DHT22;49;48.530;9.200;2023-06-26T18:13:02;29.60;1.00
108;DHT22;49;48.530;9.200;2023-06-26T18:15:31;29.40;1.00
108;DHT22;49;48.530;9.200;2023-06-26T18:17:59;29.30;1.00
108;DHT22;49;48.530;9.200;2023-06-26T18:20:26;29.20;1.00
108;DHT22;49;48.530;9.200;2023-06-26T18:22:53;29.00;1.00
108;DHT22;49;48.530;9.200;2023-06-26T18:25:22;29.20;1.00
108;DHT22;49;48.530;9.200;2023-06-26T18:27:52;29.30;1.00
108;DHT22;49;48.530;9.200;2023-06-26T18:30:24;29.40;1.00
108;DHT22;49;48.530;9.200;2023-06-26T18:32:53;29.30;1.00
108;DHT22;49;48.530;9.200;2023-06-26T18:35:23;29.40;1.00
108;DHT22;49;48.530;9.200;2023-06-26T18:40:32;29.10;1.00
108;DHT22;49;48.530;9.200;2023-06-26T18:42:59;29.00;1.00
108;DHT22;49;48.530;9.200;2023-06-26T18:47:56;29.00;1.00
108;DHT22;49;48.530;9.200;2023-06-26T18:52:51;28.80;1.00
108;DHT22;49;48.530;9.200;2023-06-26T18:55:20;28.70;1.00
108;DHT22;49;48.530;9.200;2023-06-26T19:10:15;28.00;1.00
108;DHT22;49;48.530;9.200;2023-06-26T19:30:09;27.50;1.00
108;DHT22;49;48.530;9.200;2023-06-26T19:45:08;26.90;1.00
108;DHT22;49;48.530;9.200;2023-06-26T19:47:35;26.90;1.00
108;DHT22;49;48.530;9.200;2023-06-26T19:50:03;26.80;1.00
108;DHT22;49;48.530;9.200;2023-06-26T19:52:30;26.80;1.00
108;DHT22;49;48.530;9.200;2023-06-26T19:54:57;26.80;1.00
108;DHT22;49;48.530;9.200;2023-06-26T19:57:24;26.90;1.00
108;DHT22;49;48.530;9.200;2023-06-26T19:59:51;26.70;1.00
108;DHT22;49;48.530;9.200;2023-06-26T20:02:19;26.60;1.00
108;DHT22;49;48.530;9.200;2023-06-26T20:09:49;26.40;1.00
108;DHT22;49;48.530;9.200;2023-06-26T20:12:16;26.40;1.00
108;DHT22;49;48.530;9.200;2023-06-26T20:14:44;26.40;1.00
108;DHT22;49;48.530;9.200;2023-06-26T20:17:11;26.30;1.00
108;DHT22;49;48.530;9.200;2023-06-26T20:19:40;26.30;1.00
108;DHT22;49;48.530;9.200;2023-06-26T20:27:10;26.20;1.00
108;DHT22;49;48.530;9.200;2023-06-26T20:42:03;26.20;1.00
108;DHT22;49;48.530;9.200;2023-06-26T20:47:00;25.70;1.00
108;DHT22;49;48.530;9.200;2023-06-26T20:52:10;25.80;1.00
108;DHT22;49;48.530;9.200;2023-06-26T20:57:07;25.80;1.00
108;DHT22;49;48.530;9.200;2023-06-26T20:59:35;25.80;1.00
108;DHT22;49;48.530;9.200;2023-06-26T21:02:03;25.80;1.00
108;DHT22;49;48.530;9.200;2023-06-26T21:04:29;25.80;1.00
108;DHT22;49;48.530;9.200;2023-06-26T21:06:56;25.80;1.00
108;DHT22;49;48.530;9.200;2023-06-26T21:09:25;25.90;1.00
108;DHT22;49;48.530;9.200;2023-06-26T21:11:52;25.50;1.00
108;DHT22;49;48.530;9.200;2023-06-26T21:14:23;25.10;1.00
108;DHT22;49;48.530;9.200;2023-06-26T21:16:50;24.80;1.00
108;DHT22;49;48.530;9.200;2023-06-26T21:19:17;24.60;1.00
108;DHT22;49;48.530;9.200;2023-06-26T21:21:43;24.40;1.00
108;DHT22;49;48.530;9.200;2023-06-26T21:24:10;24.40;1.00
108;DHT22;49;48.530;9.200;2023-06-26T21:26:38;24.50;1.00
108;DHT22;49;48.530;9.200;2023-06-26T21:29:05;24.80;1.00
108;DHT22;49;48.530;9.200;2023-06-26T21:31:33;25.10;1.00
108;DHT22;49;48.530;9.200;2023-06-26T21:34:00;25.10;1.00
108;DHT22;49;48.530;9.200;2023-06-26T21:36:27;25.10;1.00
108;DHT22;49;48.530;9.200;2023-06-26T21:38:54;25.00;1.00
108;DHT22;49;48.530;9.200;2023-06-26T21:41:22;25.20;1.00
108;DHT22;49;48.530;9.200;2023-06-26T21:43:49;25.20;1.00
108;DHT22;49;48.530;9.200;2023-06-26T21:46:16;25.10;1.00
108;DHT22;49;48.530;9.200;2023-06-26T21:48:44;25.30;1.00
108;DHT22;49;48.530;9.200;2023-06-26T21:51:11;25.10;1.00
108;DHT22;49;48.530;9.200;2023-06-26T21:53:38;25.10;1.00
108;DHT22;49;48.530;9.200;2023-06-26T21:56:05;25.00;1.00
108;DHT22;49;48.530;9.200;2023-06-26T21:58:32;25.00;1.00
108;DHT22;49;48.530;9.200;2023-06-26T22:00:59;25.00;1.00
108;DHT22;49;48.530;9.200;2023-06-26T22:03:26;24.80;1.00